Time;durP1;ratioP1;P1;durP2;ratioP2;P2;SDS_P1;SDS_P2;PMS_P1;PMS_P2;Temp;Humidity;BMP_temperature;BMP_pressure;BME280_temperature;BME280_humidity;BME280_pressure;Samples;Min_cycle;Max_cycle;Signal;HPM_P1;HPM_P2
2023/05/28 00:00:48;;;;;;;;;;;;;;;19.21;41.34;100670.84;6183925;23;19908;-51
2023/05/28 00:03:17;;;;;;;;;;;;;;;19.17;41.21;100666.94;6158606;23;19916;-49
2023/05/28 00:05:42;;;;;;;;;;;;;;;19.17;41.21;100666.94;6185273;23;19908;-52
2023/05/28 00:08:07;;;;;;;;;;;;;;;19.06;41.09;100666.75;6185400;23;19976;-51
2023/05/28 00:10:33;;;;;;;;;;;;;;;19.09;41.18;100654.53;6185314;23;19912;-50
2023/05/28 00:12:58;;;;;;;;;;;;;;;19.16;41.31;100655.22;6185356;23;19987;-49
2023/05/28 00:15:23;;;;;;;;;;;;;;;19.14;41.48;100655.47;6185433;23;19915;-48
2023/05/28 00:17:52;;;;;;;;;;;;;;;19.08;41.86;100659.19;6185253;23;19935;-51
2023/05/28 00:20:18;;;;;;;;;;;;;;;19.07;41.89;100652.06;6185335;23;19909;-51
2023/05/28 00:22:44;;;;;;;;;;;;;;;19.09;41.75;100652.69;6185095;23;19908;-47
2023/05/28 00:25:11;;;;;;;;;;;;;;;19.16;41.55;100657.94;6185226;23;20338;-48
2023/05/28 00:27:36;;;;;;;;;;;;;;;19.12;41.56;100656.78;6159308;23;19909;-52
2023/05/28 00:30:01;;;;;;;;;;;;;;;18.89;42.34;100653.13;6184955;23;19991;-49
2023/05/28 00:32:27;;;;;;;;;;;;;;;18.76;42.83;100650.69;6185292;23;19982;-48
2023/05/28 00:34:52;;;;;;;;;;;;;;;18.72;42.90;100642.19;6185392;23;19909;-49
2023/05/28 00:37:17;;;;;;;;;;;;;;;18.79;42.39;100641.19;6185052;23;19923;-50
2023/05/28 00:39:43;;;;;;;;;;;;;;;18.75;42.69;100641.66;6134308;23;19978;-48
2023/05/28 00:42:10;;;;;;;;;;;;;;;18.80;42.29;100649.13;6185791;23;19908;-52
2023/05/28 00:44:36;;;;;;;;;;;;;;;18.68;42.65;100646.44;6158933;23;19908;-47
2023/05/28 00:47:01;;;;;;;;;;;;;;;18.70;42.30;100649.75;6185149;23;20231;-51
2023/05/28 00:49:27;;;;;;;;;;;;;;;18.74;42.05;100648.19;6185115;23;19962;-51
2023/05/28 00:51:54;;;;;;;;;;;;;;;18.66;42.63;100650.47;6185121;23;19912;-52
2023/05/28 00:54:20;;;;;;;;;;;;;;;18.62;42.55;100652.84;6185297;23;19908;-48
2023/05/28 00:56:46;;;;;;;;;;;;;;;18.48;42.95;100641.44;6184996;23;19908;-50
2023/05/28 00:59:12;;;;;;;;;;;;;;;18.46;43.08;100646.31;6185096;23;19912;-47
2023/05/28 01:01:40;;;;;;;;;;;;;;;18.49;43.00;100643.06;6158506;23;19991;-48
2023/05/28 01:04:05;;;;;;;;;;;;;;;18.55;42.60;100641.28;6185343;23;19943;-53
2023/05/28 01:06:31;;;;;;;;;;;;;;;18.58;42.75;100633.47;6184978;23;19997;-49
2023/05/28 01:08:56;;;;;;;;;;;;;;;18.44;42.52;100636.72;6184834;23;19912;-50
2023/05/28 01:11:23;;;;;;;;;;;;;;;18.52;42.32;100636.34;6184925;23;19913;-51
2023/05/28 01:13:48;;;;;;;;;;;;;;;18.47;42.83;100631.63;6184680;23;19908;-50
2023/05/28 01:16:14;;;;;;;;;;;;;;;18.58;42.07;100641.63;6184487;23;19908;-51
2023/05/28 01:18:41;;;;;;;;;;;;;;;18.57;42.12;100650.88;6184453;23;20003;-46
2023/05/28 01:21:07;;;;;;;;;;;;;;;18.50;42.56;100642.03;6185045;23;19983;-47
2023/05/28 01:23:45;;;;;;;;;;;;;;;18.47;42.38;100644.41;6184969;23;20302;-47
2023/05/28 01:26:12;;;;;;;;;;;;;;;18.36;42.64;100644.19;6184855;23;19954;-50
2023/05/28 01:28:41;;;;;;;;;;;;;;;18.33;42.78;100641.97;6184779;23;19919;-50
2023/05/28 01:31:08;;;;;;;;;;;;;;;18.36;42.62;100644.19;6185105;23;19920;-48
2023/05/28 01:33:33;;;;;;;;;;;;;;;18.23;42.57;100652.63;6184677;23;19915;-51
2023/05/28 01:36:00;;;;;;;;;;;;;;;18.27;42.02;100651.06;6184542;23;19965;-53
2023/05/28 01:38:26;;;;;;;;;;;;;;;18.22;42.59;100652.84;6185035;23;19940;-50
2023/05/28 01:40:53;;;;;;;;;;;;;;;18.33;42.21;100661.00;6184891;23;19908;-47
2023/05/28 01:43:20;;;;;;;;;;;;;;;18.46;41.52;100662.63;6184694;23;20297;-49
2023/05/28 01:45:46;;;;;;;;;;;;;;;18.52;41.37;100668.97;6184771;23;19908;-53
2023/05/28 01:48:12;;;;;;;;;;;;;;;18.42;42.05;100674.19;6185104;23;19955;-53
2023/05/28 01:50:37;;;;;;;;;;;;;;;18.29;42.43;100675.28;6184959;23;19997;-51
2023/05/28 01:53:03;;;;;;;;;;;;;;;18.33;42.07;100679.19;6184572;23;19915;-51
2023/05/28 01:55:28;;;;;;;;;;;;;;;18.45;41.85;100676.44;6184777;23;19909;-54
2023/05/28 01:57:53;;;;;;;;;;;;;;;18.43;41.71;100656.84;6184587;23;19908;-52
2023/05/28 02:00:19;;;;;;;;;;;;;;;18.49;41.33;100669.47;6185615;23;19935;-49
2023/05/28 02:02:44;;;;;;;;;;;;;;;18.40;41.43;100670.91;6185682;23;19909;-53
2023/05/28 02:05:10;;;;;;;;;;;;;;;18.34;41.37;100675.41;6186583;23;19936;-54
2023/05/28 02:07:35;;;;;;;;;;;;;;;18.28;41.65;100679.91;6186761;23;19909;-51
2023/05/28 02:10:00;;;;;;;;;;;;;;;18.18;41.56;100683.25;6186029;23;19943;-48
2023/05/28 02:12:26;;;;;;;;;;;;;;;18.19;41.56;100671.28;6186492;23;19912;-48
2023/05/28 02:14:51;;;;;;;;;;;;;;;17.92;42.14;100676.44;6187409;23;19908;-53
2023/05/28 02:17:17;;;;;;;;;;;;;;;17.86;41.99;100674.63;6187173;23;19908;-48
2023/05/28 02:19:43;;;;;;;;;;;;;;;17.81;42.37;100663.63;6186899;23;19987;-49
2023/05/28 02:22:11;;;;;;;;;;;;;;;17.77;42.57;100671.44;6186597;23;19928;-48
2023/05/28 02:24:37;;;;;;;;;;;;;;;17.84;42.21;100678.63;6186001;23;19912;-46
2023/05/28 02:27:05;;;;;;;;;;;;;;;17.86;42.15;100676.53;6186411;23;19915;-48
2023/05/28 02:29:30;;;;;;;;;;;;;;;17.86;41.68;100684.69;6185969;23;19916;-53
2023/05/28 02:31:56;;;;;;;;;;;;;;;17.95;41.29;100683.25;6186294;23;19916;-49
2023/05/28 02:34:21;;;;;;;;;;;;;;;17.99;41.31;100687.97;6185837;23;20633;-47
2023/05/28 02:36:46;;;;;;;;;;;;;;;18.13;40.99;100685.03;6185712;23;19927;-50
2023/05/28 02:39:13;;;;;;;;;;;;;;;18.16;40.61;100684.53;6185976;23;19915;-48
2023/05/28 02:41:38;;;;;;;;;;;;;;;18.18;40.77;100688.69;6186428;23;19915;-45
2023/05/28 02:44:03;;;;;;;;;;;;;;;18.22;39.97;100690.91;6186118;23;19986;-46
2023/05/28 02:46:29;;;;;;;;;;;;;;;18.14;40.35;100682.03;6186134;23;20356;-48
2023/05/28 02:48:54;;;;;;;;;;;;;;;18.10;40.34;100683.59;6186321;23;19974;-50
2023/05/28 02:51:19;;;;;;;;;;;;;;;18.06;40.74;100678.88;6186787;23;19935;-47
2023/05/28 02:53:45;;;;;;;;;;;;;;;18.14;40.57;100684.78;6159762;23;20325;-48
2023/05/28 02:56:10;;;;;;;;;;;;;;;18.13;39.82;100693.19;6186295;23;19974;-51
2023/05/28 02:58:36;;;;;;;;;;;;;;;18.16;39.59;100704.41;6186153;23;19912;-49
2023/05/28 03:01:02;;;;;;;;;;;;;;;18.14;39.56;100711.13;6185288;23;19915;-48
2023/05/28 03:03:29;;;;;;;;;;;;;;;18.11;39.70;100714.34;6186449;23;20337;-47
2023/05/28 03:05:54;;;;;;;;;;;;;;;18.10;39.46;100712.69;6186508;23;19915;-47
2023/05/28 03:08:20;;;;;;;;;;;;;;;18.06;39.72;100701.44;6159624;23;20314;-46
2023/05/28 03:10:45;;;;;;;;;;;;;;;18.05;39.34;100704.41;6186538;23;19995;-47
2023/05/28 03:13:10;;;;;;;;;;;;;;;18.02;39.93;100708.44;6185991;23;20265;-47
2023/05/28 03:15:35;;;;;;;;;;;;;;;18.02;39.39;100710.34;6185983;23;20015;-47
2023/05/28 03:18:01;;;;;;;;;;;;;;;18.02;39.20;100713.06;6186365;23;19916;-49
2023/05/28 03:20:26;;;;;;;;;;;;;;;18.01;39.54;100720.34;6186282;23;20190;-49
2023/05/28 03:22:56;;;;;;;;;;;;;;;18.03;39.04;100728.28;6186128;23;19916;-46
2023/05/28 03:25:21;;;;;;;;;;;;;;;17.98;39.10;100729.81;6185509;23;19923;-51
2023/05/28 03:27:46;;;;;;;;;;;;;;;17.95;39.12;100732.19;6185941;23;19916;-50
2023/05/28 03:30:12;;;;;;;;;;;;;;;17.99;38.87;100730.63;6185923;23;19923;-48
2023/05/28 03:32:37;;;;;;;;;;;;;;;17.96;39.34;100739.28;6186235;23;19931;-52
2023/05/28 03:35:02;;;;;;;;;;;;;;;17.89;39.41;100741.28;6185699;23;20333;-46
2023/05/28 03:37:28;;;;;;;;;;;;;;;17.82;39.68;100741.34;6184810;23;19916;-46
2023/05/28 03:39:53;;;;;;;;;;;;;;;17.84;38.96;100733.78;6185110;23;19909;-47
2023/05/28 03:42:19;;;;;;;;;;;;;;;17.71;38.50;100740.28;6185039;23;19939;-47
2023/05/28 03:44:44;;;;;;;;;;;;;;;17.63;38.03;100731.66;6159099;23;19939;-47
2023/05/28 03:47:09;;;;;;;;;;;;;;;17.60;36.88;100728.31;6185216;23;19908;-46
2023/05/28 03:49:35;;;;;;;;;;;;;;;17.63;36.08;100737.09;6185812;23;19923;-48
2023/05/28 03:52:00;;;;;;;;;;;;;;;17.67;36.28;100736.38;6185818;23;19916;-46
2023/05/28 03:54:26;;;;;;;;;;;;;;;17.70;36.13;100730.47;6185744;23;19944;-51
2023/05/28 03:56:51;;;;;;;;;;;;;;;17.60;35.39;100744.63;6185737;23;19908;-48
2023/05/28 03:59:17;;;;;;;;;;;;;;;17.58;35.92;100727.72;6185927;23;19908;-50
2023/05/28 04:01:42;;;;;;;;;;;;;;;17.74;35.80;100739.81;6184437;23;19931;-51
2023/05/28 04:04:10;;;;;;;;;;;;;;;17.81;34.80;100747.84;6185800;23;19908;-47
2023/05/28 04:06:36;;;;;;;;;;;;;;;17.80;35.18;100757.88;6185606;23;19908;-48
2023/05/28 04:09:01;;;;;;;;;;;;;;;17.90;35.07;100768.19;6185798;23;19991;-46
2023/05/28 04:11:28;;;;;;;;;;;;;;;17.94;35.07;100769.41;6185628;23;19947;-48
2023/05/28 04:13:54;;;;;;;;;;;;;;;17.95;34.47;100787.34;6159105;23;20074;-49
2023/05/28 04:16:22;;;;;;;;;;;;;;;17.89;34.52;100760.31;6185713;23;20318;-49
2023/05/28 04:18:48;;;;;;;;;;;;;;;17.57;32.87;100757.88;6185459;23;20050;-46
2023/05/28 04:21:13;;;;;;;;;;;;;;;17.38;32.32;100763.38;6185188;23;19919;-49
2023/05/28 04:23:38;;;;;;;;;;;;;;;17.34;31.32;100764.03;6184838;23;19908;-47
2023/05/28 04:26:06;;;;;;;;;;;;;;;17.42;32.12;100778.13;6185158;23;19915;-46
2023/05/28 04:28:33;;;;;;;;;;;;;;;17.57;31.59;100772.25;6185598;23;19908;-50
2023/05/28 04:31:00;;;;;;;;;;;;;;;17.57;31.38;100766.84;6185064;23;19919;-51
2023/05/28 04:33:28;;;;;;;;;;;;;;;17.54;30.44;100764.56;6184938;23;19912;-49
2023/05/28 04:35:53;;;;;;;;;;;;;;;17.53;30.81;100771.06;6184781;23;19947;-47
2023/05/28 04:38:20;;;;;;;;;;;;;;;17.66;30.72;100767.28;6185745;23;19908;-50
2023/05/28 04:40:45;;;;;;;;;;;;;;;17.72;30.51;100758.25;6185273;23;20310;-48
2023/05/28 04:43:11;;;;;;;;;;;;;;;17.73;30.31;100767.22;6185976;23;19959;-50
2023/05/28 04:45:37;;;;;;;;;;;;;;;17.75;30.66;100775.94;6185380;23;20077;-47
2023/05/28 04:48:03;;;;;;;;;;;;;;;17.87;31.50;100784.16;6185274;23;20238;-52
2023/05/28 04:50:29;;;;;;;;;;;;;;;17.81;30.84;100777.72;6186287;23;19912;-51
2023/05/28 04:52:55;;;;;;;;;;;;;;;17.72;30.58;100773.72;6185412;23;20379;-46
2023/05/28 04:55:20;;;;;;;;;;;;;;;17.79;30.77;100785.28;6185466;23;19916;-49
2023/05/28 04:57:46;;;;;;;;;;;;;;;17.78;30.37;100784.47;6185420;23;20325;-48
2023/05/28 05:00:14;;;;;;;;;;;;;;;17.69;29.96;100785.84;6185103;23;19990;-50
2023/05/28 05:02:41;;;;;;;;;;;;;;;17.45;30.13;100787.69;6184651;23;19912;-48
2023/05/28 05:05:07;;;;;;;;;;;;;;;17.58;30.07;100784.75;6185077;23;19958;-50
2023/05/28 05:07:34;;;;;;;;;;;;;;;17.49;30.27;100783.44;6185437;23;19908;-48
2023/05/28 05:09:59;;;;;;;;;;;;;;;17.58;30.86;100778.50;6159058;23;19908;-46
2023/05/28 05:12:25;;;;;;;;;;;;;;;17.82;30.77;100786.72;6185208;23;20215;-46
2023/05/28 05:14:50;;;;;;;;;;;;;;;17.87;30.88;100779.56;6185324;23;19908;-51
2023/05/28 05:17:15;;;;;;;;;;;;;;;17.79;30.68;100794.28;6184828;23;19909;-46
2023/05/28 05:19:40;;;;;;;;;;;;;;;17.85;30.89;100794.41;6184719;23;19962;-47
2023/05/28 05:22:07;;;;;;;;;;;;;;;18.03;31.11;100796.22;6184772;23;19939;-47
2023/05/28 05:24:33;;;;;;;;;;;;;;;18.15;31.12;100799.78;6185083;23;19909;-46
2023/05/28 05:26:58;;;;;;;;;;;;;;;17.99;29.94;100807.53;6184929;23;19909;-46
2023/05/28 05:29:23;;;;;;;;;;;;;;;18.13;29.59;100797.28;6184874;23;19991;-48
2023/05/28 05:31:49;;;;;;;;;;;;;;;18.16;29.27;100794.13;6158710;23;19913;-46
2023/05/28 05:34:14;;;;;;;;;;;;;;;17.99;28.84;100793.97;6184827;23;19974;-47
2023/05/28 05:36:40;;;;;;;;;;;;;;;18.18;28.91;100794.69;6185020;23;20021;-47
2023/05/28 05:39:05;;;;;;;;;;;;;;;18.28;28.48;100788.66;6184792;23;19914;-46
2023/05/28 05:41:30;;;;;;;;;;;;;;;18.22;28.17;100795.06;6158898;23;19919;-49
2023/05/28 05:43:56;;;;;;;;;;;;;;;18.21;27.92;100782.50;6184649;23;19915;-46
2023/05/28 05:46:21;;;;;;;;;;;;;;;18.17;28.37;100793.03;6185011;23;19909;-47
2023/05/28 05:48:46;;;;;;;;;;;;;;;18.26;28.75;100790.78;6184627;23;19912;-48
2023/05/28 05:51:16;;;;;;;;;;;;;;;18.24;27.48;100797.53;6158306;23;19912;-48
2023/05/28 05:53:42;;;;;;;;;;;;;;;18.13;27.30;100810.06;6184938;23;19908;-48
2023/05/28 05:56:07;;;;;;;;;;;;;;;18.16;27.56;100801.41;6184986;23;19955;-46
2023/05/28 05:58:33;;;;;;;;;;;;;;;18.19;27.23;100801.78;6185215;23;19908;-48
2023/05/28 06:00:58;;;;;;;;;;;;;;;18.07;27.44;100790.09;6184394;23;20238;-50
2023/05/28 06:03:23;;;;;;;;;;;;;;;18.18;28.11;100792.00;6184773;23;19951;-46
2023/05/28 06:05:50;;;;;;;;;;;;;;;18.23;27.13;100791.25;6184992;23;19912;-47
2023/05/28 06:08:15;;;;;;;;;;;;;;;18.36;27.06;100796.44;6184517;23;20306;-46
2023/05/28 06:10:41;;;;;;;;;;;;;;;18.09;26.60;100773.53;6185052;23;19936;-49
2023/05/28 06:13:08;;;;;;;;;;;;;;;18.37;27.53;100803.56;6185084;23;19909;-47
2023/05/28 06:15:34;;;;;;;;;;;;;;;18.25;26.72;100813.59;6184812;23;19991;-46
2023/05/28 06:18:00;;;;;;;;;;;;;;;18.40;27.23;100788.66;6184714;23;19948;-49
2023/05/28 06:20:27;;;;;;;;;;;;;;;18.40;26.58;100793.28;6184747;23;19908;-50
2023/05/28 06:22:52;;;;;;;;;;;;;;;18.14;26.68;100790.78;6184623;23;19908;-46
2023/05/28 06:25:18;;;;;;;;;;;;;;;18.26;27.22;100788.09;6158826;23;20198;-47
2023/05/28 06:27:43;;;;;;;;;;;;;;;18.42;26.47;100785.69;6184593;23;19971;-50
2023/05/28 06:30:10;;;;;;;;;;;;;;;18.35;26.72;100783.13;6184642;23;19955;-47
2023/05/28 06:32:35;;;;;;;;;;;;;;;18.54;26.63;100800.94;6158593;23;19946;-47
2023/05/28 06:35:00;;;;;;;;;;;;;;;18.73;26.67;100795.34;6158099;23;20291;-46
2023/05/28 06:37:26;;;;;;;;;;;;;;;18.62;25.88;100804.38;6184411;23;19916;-50
2023/05/28 06:39:51;;;;;;;;;;;;;;;18.63;25.16;100828.63;6185004;23;19908;-47
2023/05/28 06:42:16;;;;;;;;;;;;;;;18.75;25.58;100807.63;6184528;23;20358;-47
2023/05/28 06:44:41;;;;;;;;;;;;;;;18.60;25.41;100812.75;6184695;23;19955;-49
2023/05/28 06:47:07;;;;;;;;;;;;;;;18.67;26.10;100812.66;6185317;23;19940;-50
2023/05/28 06:49:32;;;;;;;;;;;;;;;18.93;25.63;100820.31;6186368;23;19958;-47
2023/05/28 06:51:58;;;;;;;;;;;;;;;18.90;25.01;100856.16;6186768;23;19912;-47
2023/05/28 06:54:23;;;;;;;;;;;;;;;18.76;25.37;100835.69;6186441;23;20349;-49
2023/05/28 06:56:48;;;;;;;;;;;;;;;18.94;25.79;100830.13;6186691;23;19915;-48
2023/05/28 06:59:13;;;;;;;;;;;;;;;19.21;25.56;100840.47;6186694;23;20294;-48
2023/05/28 07:01:39;;;;;;;;;;;;;;;19.42;24.88;100838.97;6185420;23;20241;-49
2023/05/28 07:04:04;;;;;;;;;;;;;;;19.09;23.56;100865.03;6186123;23;19908;-48
2023/05/28 07:06:30;;;;;;;;;;;;;;;19.25;24.34;100836.19;6186240;23;19935;-46
2023/05/28 07:08:55;;;;;;;;;;;;;;;19.41;23.99;100825.56;6186329;23;19954;-47
2023/05/28 07:11:21;;;;;;;;;;;;;;;19.34;24.52;100837.47;6186472;23;20003;-49
2023/05/28 07:13:47;;;;;;;;;;;;;;;19.13;24.42;100824.53;6186216;23;19912;-51
2023/05/28 07:16:13;;;;;;;;;;;;;;;19.07;24.58;100829.00;6185458;23;19932;-48
2023/05/28 07:18:38;;;;;;;;;;;;;;;19.21;23.99;100823.31;6185992;23;19909;-50
2023/05/28 07:21:05;;;;;;;;;;;;;;;19.11;23.70;100830.22;6185817;23;19908;-49
2023/05/28 07:23:30;;;;;;;;;;;;;;;18.97;23.06;100836.16;6185815;23;19908;-49
2023/05/28 07:25:56;;;;;;;;;;;;;;;18.93;22.82;100882.09;6186477;23;19919;-48
2023/05/28 07:28:21;;;;;;;;;;;;;;;19.05;23.03;100849.38;6186086;23;19923;-48
2023/05/28 07:30:47;;;;;;;;;;;;;;;19.14;22.37;100847.94;6186093;23;19958;-49
2023/05/28 07:33:12;;;;;;;;;;;;;;;18.91;22.18;100873.34;6186263;23;19909;-48
2023/05/28 07:35:37;;;;;;;;;;;;;;;18.89;22.65;100861.88;6185663;23;19912;-47
2023/05/28 07:38:03;;;;;;;;;;;;;;;19.09;22.36;100840.50;6186393;23;19995;-50
2023/05/28 07:40:28;;;;;;;;;;;;;;;19.27;22.37;100868.63;6186155;23;19928;-47
2023/05/28 07:42:53;;;;;;;;;;;;;;;19.32;22.19;100844.22;6159305;23;19915;-52
2023/05/28 07:45:19;;;;;;;;;;;;;;;19.33;22.30;100849.44;6185927;23;19916;-53
2023/05/28 07:47:44;;;;;;;;;;;;;;;19.48;22.73;100846.19;6185854;23;19916;-51
2023/05/28 07:50:10;;;;;;;;;;;;;;;19.36;22.32;100850.84;6186002;23;19962;-51
2023/05/28 07:52:36;;;;;;;;;;;;;;;19.53;22.03;100857.16;6186050;23;20306;-49
2023/05/28 07:55:02;;;;;;;;;;;;;;;19.56;21.79;100869.47;6186057;23;19936;-51
2023/05/28 07:57:27;;;;;;;;;;;;;;;19.89;21.97;100865.19;6185638;23;19908;-48
2023/05/28 07:59:53;;;;;;;;;;;;;;;19.66;21.43;100868.84;6185815;23;19932;-48
2023/05/28 08:02:18;;;;;;;;;;;;;;;19.50;21.34;100864.97;6184646;23;19912;-48
2023/05/28 08:04:43;;;;;;;;;;;;;;;19.94;21.48;100853.56;6185918;23;19908;-48
2023/05/28 08:07:12;;;;;;;;;;;;;;;19.70;21.36;100846.28;6185684;23;20207;-47
2023/05/28 08:09:37;;;;;;;;;;;;;;;19.44;21.42;100858.59;6185671;23;19919;-46
2023/05/28 08:12:02;;;;;;;;;;;;;;;19.81;21.43;100866.41;6185479;23;19912;-50
2023/05/28 08:14:28;;;;;;;;;;;;;;;20.12;21.04;100845.13;6185966;23;19908;-47
2023/05/28 08:16:54;;;;;;;;;;;;;;;20.04;21.32;100845.53;6185808;23;20023;-48
2023/05/28 08:19:19;;;;;;;;;;;;;;;19.85;21.33;100878.47;6159480;23;19987;-52
2023/05/28 08:21:45;;;;;;;;;;;;;;;19.79;21.44;100849.47;6186082;23;19955;-47
2023/05/28 08:24:10;;;;;;;;;;;;;;;19.87;21.25;100881.81;6185348;23;19914;-50
2023/05/28 08:26:36;;;;;;;;;;;;;;;19.62;21.19;100860.31;6185215;23;19958;-49
2023/05/28 08:29:02;;;;;;;;;;;;;;;19.70;21.47;100870.00;6185312;23;19963;-46
2023/05/28 08:31:27;;;;;;;;;;;;;;;19.78;21.50;100874.25;6185544;23;20007;-51
2023/05/28 08:33:52;;;;;;;;;;;;;;;19.75;21.27;100888.38;6185402;23;19963;-51
2023/05/28 08:36:17;;;;;;;;;;;;;;;19.67;21.04;100868.59;6185294;23;19924;-49
2023/05/28 08:38:43;;;;;;;;;;;;;;;19.68;21.14;100859.34;6185790;23;19932;-49
2023/05/28 08:41:09;;;;;;;;;;;;;;;19.79;20.93;100860.38;6185378;23;19908;-48
2023/05/28 08:43:34;;;;;;;;;;;;;;;19.82;21.11;100876.25;6185386;23;19908;-50
2023/05/28 08:45:59;;;;;;;;;;;;;;;20.22;21.12;100837.09;6185725;23;19963;-52
2023/05/28 08:48:25;;;;;;;;;;;;;;;19.78;20.61;100855.16;6185388;23;20306;-48
2023/05/28 08:50:53;;;;;;;;;;;;;;;19.96;20.91;100851.41;6185083;23;19931;-48
2023/05/28 08:53:23;;;;;;;;;;;;;;;19.95;20.67;100869.66;6159334;23;20330;-53
2023/05/28 08:55:48;;;;;;;;;;;;;;;20.33;21.03;100851.72;6185039;23;19912;-51
2023/05/28 08:58:15;;;;;;;;;;;;;;;20.25;20.72;100863.06;6185257;23;19908;-46
2023/05/28 09:00:41;;;;;;;;;;;;;;;20.24;20.29;100888.66;6185465;23;19980;-51
2023/05/28 09:03:07;;;;;;;;;;;;;;;19.90;20.75;100877.75;6158082;23;19912;-48
2023/05/28 09:05:37;;;;;;;;;;;;;;;19.99;20.67;100884.44;6185257;23;19959;-52
2023/05/28 09:08:06;;;;;;;;;;;;;;;20.20;20.66;100873.88;6185117;23;19991;-50
2023/05/28 09:10:32;;;;;;;;;;;;;;;19.98;20.55;100866.44;6184476;23;19916;-50
2023/05/28 09:12:59;;;;;;;;;;;;;;;20.24;20.59;100872.31;6185042;23;19908;-46
2023/05/28 09:15:24;;;;;;;;;;;;;;;20.57;20.00;100855.09;6185349;23;19913;-51
2023/05/28 09:17:49;;;;;;;;;;;;;;;20.41;20.05;100884.06;6185050;23;20210;-51
2023/05/28 09:20:15;;;;;;;;;;;;;;;20.49;20.13;100877.34;6184826;23;19908;-49
2023/05/28 09:22:40;;;;;;;;;;;;;;;20.39;19.67;100879.91;6184979;23;19908;-51
2023/05/28 09:25:06;;;;;;;;;;;;;;;20.16;20.00;100876.28;6185001;23;19915;-47
2023/05/28 09:27:32;;;;;;;;;;;;;;;20.19;19.91;100881.25;6185541;23;19998;-50
2023/05/28 09:30:01;;;;;;;;;;;;;;;20.57;19.61;100885.09;6184642;23;19912;-48
2023/05/28 09:32:26;;;;;;;;;;;;;;;20.63;19.96;100856.00;6185030;23;19939;-51
2023/05/28 09:34:52;;;;;;;;;;;;;;;20.68;19.58;100876.00;6184651;23;20443;-49
2023/05/28 09:37:17;;;;;;;;;;;;;;;20.66;19.63;100875.44;6184520;23;19955;-47
2023/05/28 09:39:43;;;;;;;;;;;;;;;20.91;19.69;100884.25;6184926;23;20340;-50
2023/05/28 09:42:12;;;;;;;;;;;;;;;20.72;19.30;100903.63;6184548;23;19908;-52
2023/05/28 09:44:39;;;;;;;;;;;;;;;20.91;19.73;100854.22;6184819;23;19908;-52
2023/05/28 09:47:15;;;;;;;;;;;;;;;20.94;19.57;100864.63;6184506;23;19915;-49
2023/05/28 09:49:44;;;;;;;;;;;;;;;21.15;19.42;100844.69;6185164;23;20211;-51
2023/05/28 09:52:16;;;;;;;;;;;;;;;21.29;18.95;100853.31;6184765;23;19912;-51
2023/05/28 09:54:45;;;;;;;;;;;;;;;21.43;19.48;100854.59;6184625;23;20284;-52
2023/05/28 09:57:11;;;;;;;;;;;;;;;21.24;19.18;100891.50;6184564;23;19974;-50
2023/05/28 09:59:38;;;;;;;;;;;;;;;21.16;19.07;100840.06;6184740;23;19919;-50
2023/05/28 10:02:20;;;;;;;;;;;;;;;21.08;19.29;100825.78;6183628;23;19915;-48
2023/05/28 10:04:48;;;;;;;;;;;;;;;21.38;19.33;100834.59;6184534;23;20317;-47
2023/05/28 10:07:13;;;;;;;;;;;;;;;21.59;18.54;100860.25;6184280;23;19955;-51
2023/05/28 10:09:40;;;;;;;;;;;;;;;21.50;18.50;100851.66;6184546;23;19909;-51
2023/05/28 10:12:09;;;;;;;;;;;;;;;21.64;17.96;100835.69;6185053;23;20215;-52
2023/05/28 10:14:35;;;;;;;;;;;;;;;21.68;18.00;100836.00;6158409;23;19908;-54
2023/05/28 10:17:00;;;;;;;;;;;;;;;21.85;18.27;100825.75;6184565;23;19940;-53
2023/05/28 10:19:26;;;;;;;;;;;;;;;22.07;18.29;100833.88;6184277;23;19908;-48
2023/05/28 10:21:52;;;;;;;;;;;;;;;22.14;18.14;100817.22;6185295;23;19912;-51
2023/05/28 10:24:18;;;;;;;;;;;;;;;22.10;17.77;100838.00;6186210;23;19912;-49
2023/05/28 10:26:43;;;;;;;;;;;;;;;22.45;17.98;100820.22;6186717;23;19908;-50
2023/05/28 10:29:08;;;;;;;;;;;;;;;22.67;18.22;100828.28;6160547;23;19912;-53
2023/05/28 10:31:34;;;;;;;;;;;;;;;22.89;17.50;100826.19;6186844;23;19916;-50
2023/05/28 10:33:59;;;;;;;;;;;;;;;23.46;17.23;100829.13;6186619;23;20008;-53
2023/05/28 10:36:24;;;;;;;;;;;;;;;23.39;16.89;100871.34;6185565;23;19916;-52
2023/05/28 10:38:52;;;;;;;;;;;;;;;23.80;16.87;100842.41;6186314;23;19916;-52
2023/05/28 10:41:19;;;;;;;;;;;;;;;23.31;16.71;100862.81;6186309;23;19940;-50
2023/05/28 10:43:45;;;;;;;;;;;;;;;23.87;17.40;100854.75;6185907;23;20388;-51
2023/05/28 10:46:11;;;;;;;;;;;;;;;24.30;16.26;100849.81;6185754;23;19909;-54
2023/05/28 10:48:40;;;;;;;;;;;;;;;24.49;16.01;100851.97;6186042;23;19909;-53
2023/05/28 10:51:06;;;;;;;;;;;;;;;24.61;16.28;100840.69;6186086;23;19912;-52
2023/05/28 10:53:31;;;;;;;;;;;;;;;24.76;15.85;100857.16;6186286;23;19975;-50
2023/05/28 10:55:57;;;;;;;;;;;;;;;24.77;15.67;100856.03;6185863;23;19912;-47
2023/05/28 10:58:48;;;;;;;;;;;;;;;25.22;15.27;100864.38;6185499;23;20546;-47
2023/05/28 11:01:16;;;;;;;;;;;;;;;25.44;15.17;100861.28;6177450;23;20278;-50
2023/05/28 11:03:42;;;;;;;;;;;;;;;25.49;15.05;100872.25;6186207;23;19908;-50
2023/05/28 11:06:08;;;;;;;;;;;;;;;25.64;14.80;100863.91;6186445;23;19999;-53
2023/05/28 11:08:48;;;;;;;;;;;;;;;25.46;15.37;100868.16;6186126;23;19951;-52
2023/05/28 11:11:17;;;;;;;;;;;;;;;25.78;15.07;100849.50;6185862;23;20423;-51
2023/05/28 11:13:45;;;;;;;;;;;;;;;26.41;15.28;100857.81;6186129;23;20030;-51
2023/05/28 11:16:12;;;;;;;;;;;;;;;26.45;13.99;100875.41;6186255;23;19908;-50
2023/05/28 11:18:37;;;;;;;;;;;;;;;26.00;13.88;100863.69;6186354;23;19912;-49
2023/05/28 11:21:03;;;;;;;;;;;;;;;26.22;14.40;100868.72;6186046;23;19966;-51
2023/05/28 11:23:29;;;;;;;;;;;;;;;26.46;14.32;100873.47;6185772;23;19912;-48
2023/05/28 11:25:54;;;;;;;;;;;;;;;26.62;13.29;100886.00;6185837;23;20292;-46
2023/05/28 11:28:20;;;;;;;;;;;;;;;26.65;13.77;100874.41;6185766;23;19908;-48
2023/05/28 11:30:45;;;;;;;;;;;;;;;26.87;13.33;100866.72;6185942;23;19991;-50
2023/05/28 11:33:11;;;;;;;;;;;;;;;27.34;13.68;100881.59;6185487;23;19908;-50
2023/05/28 11:35:36;;;;;;;;;;;;;;;26.97;13.45;100883.16;6185941;23;19916;-50
2023/05/28 11:38:01;;;;;;;;;;;;;;;27.29;13.44;100876.19;6185913;23;19912;-48
2023/05/28 11:40:32;;;;;;;;;;;;;;;27.93;14.60;100882.16;6185407;23;19966;-54
2023/05/28 11:42:58;;;;;;;;;;;;;;;28.36;13.65;100882.81;6185415;23;19912;-54
2023/05/28 11:45:23;;;;;;;;;;;;;;;29.05;13.92;100893.16;6159267;23;19908;-50
2023/05/28 11:47:49;;;;;;;;;;;;;;;29.25;13.42;100883.66;6185610;23;19943;-52
2023/05/28 11:50:15;;;;;;;;;;;;;;;29.28;12.57;100888.53;6185879;23;20210;-51
2023/05/28 11:52:41;;;;;;;;;;;;;;;29.40;12.69;100884.41;6185784;23;20307;-50
2023/05/28 11:55:06;;;;;;;;;;;;;;;29.26;11.99;100901.06;6185512;23;20366;-53
2023/05/28 11:57:38;;;;;;;;;;;;;;;29.46;13.59;100897.03;6185352;23;20402;-50
2023/05/28 12:00:11;;;;;;;;;;;;;;;28.94;12.24;100902.78;6185439;23;19908;-52
2023/05/28 12:02:49;;;;;;;;;;;;;;;29.30;12.88;100896.53;6184114;23;19919;-51
2023/05/28 12:05:18;;;;;;;;;;;;;;;29.32;11.71;100867.41;6185379;23;19908;-47
2023/05/28 12:07:45;;;;;;;;;;;;;;;29.78;11.81;100887.72;6185880;23;20274;-50
2023/05/28 12:10:11;;;;;;;;;;;;;;;30.27;12.58;100876.81;6185578;23;19920;-50
2023/05/28 12:12:44;;;;;;;;;;;;;;;30.35;11.60;100889.13;6185655;23;20110;-51
2023/05/28 12:15:10;;;;;;;;;;;;;;;30.63;11.54;100875.94;6185185;23;19912;-50
2023/05/28 12:17:38;;;;;;;;;;;;;;;30.62;11.53;100885.38;6185238;23;19931;-49
2023/05/28 12:20:07;;;;;;;;;;;;;;;31.18;11.71;100871.88;6185253;23;19939;-48
2023/05/28 12:22:33;;;;;;;;;;;;;;;31.35;10.96;100879.41;6185384;23;19916;-52
2023/05/28 12:24:58;;;;;;;;;;;;;;;31.34;11.10;100870.28;6185420;23;19975;-52
2023/05/28 12:27:24;;;;;;;;;;;;;;;31.71;11.19;100872.78;6185452;23;19909;-48
2023/05/28 12:29:49;;;;;;;;;;;;;;;31.47;9.80;100884.34;6185416;23;19909;-49